sensor_id;sensor_type;location;lat;lon;timestamp;P1;durP1;ratioP1;P2;durP2;ratioP2
5355;SDS011;70449;52.486;13.386;2023-11-21T00:00:42;11.93;;;8.57;;
5355;SDS011;70449;52.486;13.386;2023-11-21T00:03:10;10.90;;;7.00;;
5355;SDS011;70449;52.486;13.386;2023-11-21T00:05:40;13.13;;;8.60;;
5355;SDS011;70449;52.486;13.386;2023-11-21T00:08:07;13.73;;;8.93;;
5355;SDS011;70449;52.486;13.386;2023-11-21T00:10:35;12.77;;;8.43;;
5355;SDS011;70449;52.486;13.386;2023-11-21T00:13:05;12.17;;;8.60;;
5355;SDS011;70449;52.486;13.386;2023-11-21T00:15:32;12.03;;;8.53;;
5355;SDS011;70449;52.486;13.386;2023-11-21T00:18:00;16.77;;;10.00;;
5355;SDS011;70449;52.486;13.386;2023-11-21T00:20:27;23.00;;;11.80;;
5355;SDS011;70449;52.486;13.386;2023-11-21T00:22:54;21.13;;;12.23;;
5355;SDS011;70449;52.486;13.386;2023-11-21T00:25:21;21.97;;;13.40;;
5355;SDS011;70449;52.486;13.386;2023-11-21T00:27:50;28.20;;;14.60;;
5355;SDS011;70449;52.486;13.386;2023-11-21T00:30:19;26.03;;;14.63;;
5355;SDS011;70449;52.486;13.386;2023-11-21T00:32:47;26.07;;;14.13;;
5355;SDS011;70449;52.486;13.386;2023-11-21T00:35:14;29.07;;;15.50;;
5355;SDS011;70449;52.486;13.386;2023-11-21T00:37:41;28.67;;;13.57;;
5355;SDS011;70449;52.486;13.386;2023-11-21T00:40:11;31.70;;;14.47;;
5355;SDS011;70449;52.486;13.386;2023-11-21T00:42:41;26.60;;;14.67;;
5355;SDS011;70449;52.486;13.386;2023-11-21T00:45:09;27.87;;;15.97;;
5355;SDS011;70449;52.486;13.386;2023-11-21T00:47:41;30.83;;;15.50;;
5355;SDS011;70449;52.486;13.386;2023-11-21T00:50:08;33.40;;;15.30;;
5355;SDS011;70449;52.486;13.386;2023-11-21T00:52:36;34.37;;;16.00;;
5355;SDS011;70449;52.486;13.386;2023-11-21T00:55:03;44.43;;;16.60;;
5355;SDS011;70449;52.486;13.386;2023-11-21T00:57:32;32.80;;;16.33;;
5355;SDS011;70449;52.486;13.386;2023-11-21T01:00:01;33.93;;;17.03;;
5355;SDS011;70449;52.486;13.386;2023-11-21T01:02:32;38.57;;;17.83;;
5355;SDS011;70449;52.486;13.386;2023-11-21T01:05:02;37.97;;;18.43;;
5355;SDS011;70449;52.486;13.386;2023-11-21T01:07:30;49.33;;;18.73;;
5355;SDS011;70449;52.486;13.386;2023-11-21T01:09:57;49.13;;;19.00;;
5355;SDS011;70449;52.486;13.386;2023-11-21T01:12:25;60.40;;;21.60;;
5355;SDS011;70449;52.486;13.386;2023-11-21T01:14:54;63.03;;;20.77;;
5355;SDS011;70449;52.486;13.386;2023-11-21T01:17:22;60.07;;;19.40;;
5355;SDS011;70449;52.486;13.386;2023-11-21T01:19:50;63.67;;;23.37;;
5355;SDS011;70449;52.486;13.386;2023-11-21T01:22:18;56.80;;;23.03;;
5355;SDS011;70449;52.486;13.386;2023-11-21T01:24:50;66.07;;;22.33;;
5355;SDS011;70449;52.486;13.386;2023-11-21T01:27:18;72.07;;;23.97;;
5355;SDS011;70449;52.486;13.386;2023-11-21T01:29:45;61.57;;;23.50;;
5355;SDS011;70449;52.486;13.386;2023-11-21T01:32:12;76.43;;;25.20;;
5355;SDS011;70449;52.486;13.386;2023-11-21T01:34:40;76.90;;;25.47;;
5355;SDS011;70449;52.486;13.386;2023-11-21T01:37:07;73.50;;;25.80;;
5355;SDS011;70449;52.486;13.386;2023-11-21T01:39:38;71.73;;;23.30;;
5355;SDS011;70449;52.486;13.386;2023-11-21T01:42:06;71.60;;;26.47;;
5355;SDS011;70449;52.486;13.386;2023-11-21T01:44:34;79.33;;;28.90;;
5355;SDS011;70449;52.486;13.386;2023-11-21T01:47:01;77.80;;;26.53;;
5355;SDS011;70449;52.486;13.386;2023-11-21T01:49:31;72.47;;;25.90;;
5355;SDS011;70449;52.486;13.386;2023-11-21T01:51:59;77.70;;;23.43;;
5355;SDS011;70449;52.486;13.386;2023-11-21T01:54:27;73.67;;;24.30;;
5355;SDS011;70449;52.486;13.386;2023-11-21T01:56:58;67.73;;;20.80;;
5355;SDS011;70449;52.486;13.386;2023-11-21T01:59:29;68.50;;;20.73;;
5355;SDS011;70449;52.486;13.386;2023-11-21T02:02:02;61.83;;;18.63;;
5355;SDS011;70449;52.486;13.386;2023-11-21T02:04:30;53.43;;;18.23;;
5355;SDS011;70449;52.486;13.386;2023-11-21T02:06:57;63.83;;;20.57;;
5355;SDS011;70449;52.486;13.386;2023-11-21T02:09:27;52.17;;;19.70;;
5355;SDS011;70449;52.486;13.386;2023-11-21T02:12:01;45.23;;;17.60;;
5355;SDS011;70449;52.486;13.386;2023-11-21T02:14:32;48.10;;;15.67;;
5355;SDS011;70449;52.486;13.386;2023-11-21T02:17:00;46.80;;;16.97;;
5355;SDS011;70449;52.486;13.386;2023-11-21T02:19:28;35.03;;;15.20;;
5355;SDS011;70449;52.486;13.386;2023-11-21T02:21:57;39.50;;;13.77;;
5355;SDS011;70449;52.486;13.386;2023-11-21T02:24:31;36.27;;;12.97;;
5355;SDS011;70449;52.486;13.386;2023-11-21T02:26:58;30.03;;;11.57;;
5355;SDS011;70449;52.486;13.386;2023-11-21T02:29:27;35.73;;;13.10;;
5355;SDS011;70449;52.486;13.386;2023-11-21T02:31:55;34.07;;;11.60;;
5355;SDS011;70449;52.486;13.386;2023-11-21T02:34:23;36.60;;;11.40;;
5355;SDS011;70449;52.486;13.386;2023-11-21T02:36:50;21.70;;;10.27;;
5355;SDS011;70449;52.486;13.386;2023-11-21T02:39:18;28.87;;;11.93;;
5355;SDS011;70449;52.486;13.386;2023-11-21T02:41:48;22.43;;;10.67;;
5355;SDS011;70449;52.486;13.386;2023-11-21T02:44:16;26.23;;;11.07;;
5355;SDS011;70449;52.486;13.386;2023-11-21T02:46:43;23.77;;;11.10;;
5355;SDS011;70449;52.486;13.386;2023-11-21T02:49:12;18.20;;;9.90;;
5355;SDS011;70449;52.486;13.386;2023-11-21T02:51:39;21.63;;;11.83;;
5355;SDS011;70449;52.486;13.386;2023-11-21T02:54:06;20.23;;;10.10;;
5355;SDS011;70449;52.486;13.386;2023-11-21T02:56:34;20.73;;;9.23;;
5355;SDS011;70449;52.486;13.386;2023-11-21T02:59:02;16.77;;;9.73;;
5355;SDS011;70449;52.486;13.386;2023-11-21T03:01:30;16.67;;;9.00;;
5355;SDS011;70449;52.486;13.386;2023-11-21T03:03:57;20.43;;;10.47;;
5355;SDS011;70449;52.486;13.386;2023-11-21T03:06:24;18.77;;;9.73;;
5355;SDS011;70449;52.486;13.386;2023-11-21T03:08:52;20.23;;;9.97;;
5355;SDS011;70449;52.486;13.386;2023-11-21T03:11:19;36.60;;;12.30;;
5355;SDS011;70449;52.486;13.386;2023-11-21T03:13:46;17.00;;;10.90;;
5355;SDS011;70449;52.486;13.386;2023-11-21T03:16:15;23.73;;;11.20;;
5355;SDS011;70449;52.486;13.386;2023-11-21T03:18:44;24.47;;;12.50;;
5355;SDS011;70449;52.486;13.386;2023-11-21T03:21:12;25.03;;;11.73;;
5355;SDS011;70449;52.486;13.386;2023-11-21T03:23:39;19.53;;;11.37;;
5355;SDS011;70449;52.486;13.386;2023-11-21T03:26:11;18.97;;;10.93;;
5355;SDS011;70449;52.486;13.386;2023-11-21T03:28:39;23.83;;;12.23;;
5355;SDS011;70449;52.486;13.386;2023-11-21T03:31:06;23.03;;;12.30;;
5355;SDS011;70449;52.486;13.386;2023-11-21T03:33:35;20.57;;;11.87;;
5355;SDS011;70449;52.486;13.386;2023-11-21T03:36:02;19.07;;;11.13;;
5355;SDS011;70449;52.486;13.386;2023-11-21T03:38:30;17.03;;;10.37;;
5355;SDS011;70449;52.486;13.386;2023-11-21T03:40:57;15.47;;;9.60;;
5355;SDS011;70449;52.486;13.386;2023-11-21T03:43:25;15.10;;;9.87;;
5355;SDS011;70449;52.486;13.386;2023-11-21T03:45:52;14.40;;;9.57;;
5355;SDS011;70449;52.486;13.386;2023-11-21T03:48:22;15.90;;;8.87;;
5355;SDS011;70449;52.486;13.386;2023-11-21T03:50:51;10.80;;;7.30;;
5355;SDS011;70449;52.486;13.386;2023-11-21T03:53:20;18.70;;;9.60;;
5355;SDS011;70449;52.486;13.386;2023-11-21T03:55:51;16.20;;;8.70;;
5355;SDS011;70449;52.486;13.386;2023-11-21T03:58:20;25.90;;;9.07;;
5355;SDS011;70449;52.486;13.386;2023-11-21T04:00:47;16.10;;;9.77;;
5355;SDS011;70449;52.486;13.386;2023-11-21T04:03:15;18.50;;;10.03;;
5355;SDS011;70449;52.486;13.386;2023-11-21T04:05:42;18.17;;;9.87;;
5355;SDS011;70449;52.486;13.386;2023-11-21T04:08:12;13.37;;;10.00;;
5355;SDS011;70449;52.486;13.386;2023-11-21T04:10:39;15.37;;;9.73;;
5355;SDS011;70449;52.486;13.386;2023-11-21T04:13:07;14.80;;;10.03;;
5355;SDS011;70449;52.486;13.386;2023-11-21T04:15:35;13.23;;;9.90;;
5355;SDS011;70449;52.486;13.386;2023-11-21T04:18:02;13.03;;;9.30;;
5355;SDS011;70449;52.486;13.386;2023-11-21T04:20:30;14.87;;;10.13;;
5355;SDS011;70449;52.486;13.386;2023-11-21T04:22:57;16.40;;;10.20;;
5355;SDS011;70449;52.486;13.386;2023-11-21T04:25:26;13.57;;;8.23;;
5355;SDS011;70449;52.486;13.386;2023-11-21T04:27:53;13.40;;;9.20;;
5355;SDS011;70449;52.486;13.386;2023-11-21T04:30:20;15.73;;;9.00;;
5355;SDS011;70449;52.486;13.386;2023-11-21T04:32:47;17.53;;;9.00;;
5355;SDS011;70449;52.486;13.386;2023-11-21T04:35:15;13.70;;;8.57;;
5355;SDS011;70449;52.486;13.386;2023-11-21T04:37:43;12.60;;;7.90;;
5355;SDS011;70449;52.486;13.386;2023-11-21T04:40:11;14.30;;;9.17;;
5355;SDS011;70449;52.486;13.386;2023-11-21T04:42:39;15.20;;;8.23;;
5355;SDS011;70449;52.486;13.386;2023-11-21T04:45:07;16.33;;;8.10;;
5355;SDS011;70449;52.486;13.386;2023-11-21T04:47:36;9.90;;;7.50;;
5355;SDS011;70449;52.486;13.386;2023-11-21T04:50:04;23.30;;;8.03;;
5355;SDS011;70449;52.486;13.386;2023-11-21T04:52:32;15.37;;;8.50;;
5355;SDS011;70449;52.486;13.386;2023-11-21T04:54:59;15.90;;;8.93;;
5355;SDS011;70449;52.486;13.386;2023-11-21T04:57:27;15.93;;;8.23;;
5355;SDS011;70449;52.486;13.386;2023-11-21T04:59:56;13.07;;;7.90;;
5355;SDS011;70449;52.486;13.386;2023-11-21T05:02:23;13.03;;;8.03;;
5355;SDS011;70449;52.486;13.386;2023-11-21T05:04:50;16.20;;;8.60;;
5355;SDS011;70449;52.486;13.386;2023-11-21T05:07:18;13.87;;;9.33;;
5355;SDS011;70449;52.486;13.386;2023-11-21T05:09:46;9.37;;;6.73;;
5355;SDS011;70449;52.486;13.386;2023-11-21T05:12:13;20.17;;;8.70;;
5355;SDS011;70449;52.486;13.386;2023-11-21T05:14:40;11.70;;;8.07;;
5355;SDS011;70449;52.486;13.386;2023-11-21T05:17:09;14.30;;;7.30;;
5355;SDS011;70449;52.486;13.386;2023-11-21T05:19:37;18.60;;;9.33;;
5355;SDS011;70449;52.486;13.386;2023-11-21T05:22:05;19.97;;;8.60;;
5355;SDS011;70449;52.486;13.386;2023-11-21T05:24:33;13.37;;;8.40;;
5355;SDS011;70449;52.486;13.386;2023-11-21T05:27:01;15.50;;;8.10;;
5355;SDS011;70449;52.486;13.386;2023-11-21T05:29:28;11.07;;;7.30;;
5355;SDS011;70449;52.486;13.386;2023-11-21T05:31:56;10.87;;;7.10;;
5355;SDS011;70449;52.486;13.386;2023-11-21T05:34:24;17.43;;;8.27;;
5355;SDS011;70449;52.486;13.386;2023-11-21T05:36:56;16.93;;;7.73;;
5355;SDS011;70449;52.486;13.386;2023-11-21T05:39:35;10.33;;;7.60;;
5355;SDS011;70449;52.486;13.386;2023-11-21T05:42:02;16.67;;;8.67;;
5355;SDS011;70449;52.486;13.386;2023-11-21T05:44:31;15.03;;;8.53;;
5355;SDS011;70449;52.486;13.386;2023-11-21T05:47:08;13.03;;;7.40;;
5355;SDS011;70449;52.486;13.386;2023-11-21T05:49:53;12.87;;;7.90;;
5355;SDS011;70449;52.486;13.386;2023-11-21T05:52:38;15.50;;;7.43;;
5355;SDS011;70449;52.486;13.386;2023-11-21T05:55:09;11.33;;;7.03;;
5355;SDS011;70449;52.486;13.386;2023-11-21T05:57:46;13.53;;;8.93;;
5355;SDS011;70449;52.486;13.386;2023-11-21T06:02:58;15.27;;;9.00;;
5355;SDS011;70449;52.486;13.386;2023-11-21T06:05:31;17.43;;;8.07;;
5355;SDS011;70449;52.486;13.386;2023-11-21T06:07:59;11.70;;;6.97;;
5355;SDS011;70449;52.486;13.386;2023-11-21T06:10:27;12.00;;;8.20;;
5355;SDS011;70449;52.486;13.386;2023-11-21T06:13:07;12.07;;;7.60;;
5355;SDS011;70449;52.486;13.386;2023-11-21T06:15:40;10.13;;;7.00;;
5355;SDS011;70449;52.486;13.386;2023-11-21T06:18:14;12.13;;;6.47;;
5355;SDS011;70449;52.486;13.386;2023-11-21T06:21:00;11.37;;;7.33;;
5355;SDS011;70449;52.486;13.386;2023-11-21T06:23:41;12.30;;;6.50;;
5355;SDS011;70449;52.486;13.386;2023-11-21T06:26:09;12.93;;;7.30;;
5355;SDS011;70449;52.486;13.386;2023-11-21T06:28:40;9.87;;;6.67;;
5355;SDS011;70449;52.486;13.386;2023-11-21T06:31:24;6.33;;;5.20;;
5355;SDS011;70449;52.486;13.386;2023-11-21T06:33:51;9.00;;;5.80;;
5355;SDS011;70449;52.486;13.386;2023-11-21T06:36:20;11.37;;;6.70;;
5355;SDS011;70449;52.486;13.386;2023-11-21T06:38:47;8.60;;;5.67;;
5355;SDS011;70449;52.486;13.386;2023-11-21T06:41:15;7.43;;;5.67;;
5355;SDS011;70449;52.486;13.386;2023-11-21T06:43:42;9.93;;;6.17;;
5355;SDS011;70449;52.486;13.386;2023-11-21T06:46:11;17.67;;;6.37;;
5355;SDS011;70449;52.486;13.386;2023-11-21T06:48:41;8.30;;;5.83;;
5355;SDS011;70449;52.486;13.386;2023-11-21T06:51:09;5.80;;;5.00;;
5355;SDS011;70449;52.486;13.386;2023-11-21T06:53:38;12.87;;;6.00;;
5355;SDS011;70449;52.486;13.386;2023-11-21T06:56:05;7.30;;;5.83;;
5355;SDS011;70449;52.486;13.386;2023-11-21T06:58:43;9.13;;;5.50;;
5355;SDS011;70449;52.486;13.386;2023-11-21T07:01:11;6.50;;;5.57;;
5355;SDS011;70449;52.486;13.386;2023-11-21T07:03:38;15.13;;;6.43;;
5355;SDS011;70449;52.486;13.386;2023-11-21T07:06:06;11.00;;;5.87;;
5355;SDS011;70449;52.486;13.386;2023-11-21T07:08:34;13.77;;;6.47;;
5355;SDS011;70449;52.486;13.386;2023-11-21T07:11:03;9.30;;;5.73;;
5355;SDS011;70449;52.486;13.386;2023-11-21T07:13:31;8.93;;;5.13;;
5355;SDS011;70449;52.486;13.386;2023-11-21T07:15:59;10.03;;;5.97;;
5355;SDS011;70449;52.486;13.386;2023-11-21T07:18:26;10.57;;;6.30;;
5355;SDS011;70449;52.486;13.386;2023-11-21T07:20:53;14.47;;;5.50;;
5355;SDS011;70449;52.486;13.386;2023-11-21T07:23:20;15.53;;;5.27;;
5355;SDS011;70449;52.486;13.386;2023-11-21T07:25:48;8.73;;;6.70;;
5355;SDS011;70449;52.486;13.386;2023-11-21T07:28:17;11.33;;;5.63;;
5355;SDS011;70449;52.486;13.386;2023-11-21T07:30:47;8.77;;;6.10;;
5355;SDS011;70449;52.486;13.386;2023-11-21T07:33:14;15.73;;;5.87;;
5355;SDS011;70449;52.486;13.386;2023-11-21T07:35:42;9.60;;;5.43;;
5355;SDS011;70449;52.486;13.386;2023-11-21T07:38:09;7.73;;;4.87;;
5355;SDS011;70449;52.486;13.386;2023-11-21T07:40:36;6.80;;;5.13;;
5355;SDS011;70449;52.486;13.386;2023-11-21T07:43:04;11.10;;;5.50;;
5355;SDS011;70449;52.486;13.386;2023-11-21T07:45:32;9.70;;;5.60;;
5355;SDS011;70449;52.486;13.386;2023-11-21T07:47:59;6.00;;;5.20;;
5355;SDS011;70449;52.486;13.386;2023-11-21T07:50:28;11.10;;;5.33;;
5355;SDS011;70449;52.486;13.386;2023-11-21T07:52:56;6.20;;;5.23;;
5355;SDS011;70449;52.486;13.386;2023-11-21T07:55:24;7.67;;;5.30;;
5355;SDS011;70449;52.486;13.386;2023-11-21T07:57:51;9.00;;;5.50;;
5355;SDS011;70449;52.486;13.386;2023-11-21T08:00:19;9.87;;;6.00;;
5355;SDS011;70449;52.486;13.386;2023-11-21T08:02:48;13.87;;;6.20;;
5355;SDS011;70449;52.486;13.386;2023-11-21T08:05:15;15.63;;;6.77;;
5355;SDS011;70449;52.486;13.386;2023-11-21T08:07:43;8.40;;;5.87;;
5355;SDS011;70449;52.486;13.386;2023-11-21T08:10:10;15.00;;;5.77;;
5355;SDS011;70449;52.486;13.386;2023-11-21T08:12:37;8.30;;;4.67;;
5355;SDS011;70449;52.486;13.386;2023-11-21T08:15:05;13.70;;;4.67;;
5355;SDS011;70449;52.486;13.386;2023-11-21T08:17:34;10.50;;;5.97;;
5355;SDS011;70449;52.486;13.386;2023-11-21T08:20:03;11.23;;;5.90;;
5355;SDS011;70449;52.486;13.386;2023-11-21T08:22:33;12.57;;;5.27;;
5355;SDS011;70449;52.486;13.386;2023-11-21T08:25:01;6.03;;;4.70;;
5355;SDS011;70449;52.486;13.386;2023-11-21T08:27:29;13.27;;;5.63;;
5355;SDS011;70449;52.486;13.386;2023-11-21T08:29:57;9.53;;;4.90;;
5355;SDS011;70449;52.486;13.386;2023-11-21T08:32:24;15.13;;;5.47;;
5355;SDS011;70449;52.486;13.386;2023-11-21T08:34:51;9.07;;;4.30;;
5355;SDS011;70449;52.486;13.386;2023-11-21T08:37:20;18.27;;;6.03;;
5355;SDS011;70449;52.486;13.386;2023-11-21T08:39:47;14.03;;;6.10;;
5355;SDS011;70449;52.486;13.386;2023-11-21T08:42:14;16.53;;;5.70;;
5355;SDS011;70449;52.486;13.386;2023-11-21T08:44:42;23.70;;;7.23;;
5355;SDS011;70449;52.486;13.386;2023-11-21T08:47:10;14.30;;;7.00;;
5355;SDS011;70449;52.486;13.386;2023-11-21T08:49:38;14.77;;;6.23;;
5355;SDS011;70449;52.486;13.386;2023-11-21T08:52:05;15.40;;;6.30;;
5355;SDS011;70449;52.486;13.386;2023-11-21T08:54:34;22.23;;;6.30;;
5355;SDS011;70449;52.486;13.386;2023-11-21T08:57:01;13.73;;;6.73;;
5355;SDS011;70449;52.486;13.386;2023-11-21T08:59:30;26.83;;;6.60;;
5355;SDS011;70449;52.486;13.386;2023-11-21T09:01:58;17.43;;;6.27;;
5355;SDS011;70449;52.486;13.386;2023-11-21T09:04:25;12.07;;;5.90;;
5355;SDS011;70449;52.486;13.386;2023-11-21T09:06:53;14.33;;;6.27;;
5355;SDS011;70449;52.486;13.386;2023-11-21T09:09:20;19.60;;;6.97;;
5355;SDS011;70449;52.486;13.386;2023-11-21T09:11:48;19.17;;;6.90;;
5355;SDS011;70449;52.486;13.386;2023-11-21T09:14:16;15.00;;;5.27;;
5355;SDS011;70449;52.486;13.386;2023-11-21T09:16:43;11.17;;;6.20;;
5355;SDS011;70449;52.486;13.386;2023-11-21T09:19:10;31.73;;;6.70;;
5355;SDS011;70449;52.486;13.386;2023-11-21T09:21:39;25.00;;;6.53;;
5355;SDS011;70449;52.486;13.386;2023-11-21T09:24:07;18.07;;;6.37;;
5355;SDS011;70449;52.486;13.386;2023-11-21T09:26:35;24.23;;;7.47;;
5355;SDS011;70449;52.486;13.386;2023-11-21T09:29:03;16.90;;;6.40;;
5355;SDS011;70449;52.486;13.386;2023-11-21T09:31:31;14.40;;;6.30;;
5355;SDS011;70449;52.486;13.386;2023-11-21T09:33:58;19.37;;;6.43;;
5355;SDS011;70449;52.486;13.386;2023-11-21T09:36:27;13.23;;;6.10;;
5355;SDS011;70449;52.486;13.386;2023-11-21T09:38:55;20.43;;;6.13;;
5355;SDS011;70449;52.486;13.386;2023-11-21T09:41:25;18.00;;;5.50;;
5355;SDS011;70449;52.486;13.386;2023-11-21T09:44:00;17.50;;;6.23;;
5355;SDS011;70449;52.486;13.386;2023-11-21T09:46:36;16.70;;;6.57;;
5355;SDS011;70449;52.486;13.386;2023-11-21T09:49:06;23.00;;;7.17;;
5355;SDS011;70449;52.486;13.386;2023-11-21T09:51:38;30.10;;;6.73;;
5355;SDS011;70449;52.486;13.386;2023-11-21T09:54:08;16.23;;;6.07;;
5355;SDS011;70449;52.486;13.386;2023-11-21T09:56:37;40.10;;;7.40;;
5355;SDS011;70449;52.486;13.386;2023-11-21T09:59:06;14.40;;;6.07;;
5355;SDS011;70449;52.486;13.386;2023-11-21T10:01:37;12.77;;;5.30;;
5355;SDS011;70449;52.486;13.386;2023-11-21T10:04:07;18.83;;;5.00;;
5355;SDS011;70449;52.486;13.386;2023-11-21T10:06:37;15.97;;;3.67;;
5355;SDS011;70449;52.486;13.386;2023-11-21T10:09:07;8.60;;;4.57;;
5355;SDS011;70449;52.486;13.386;2023-11-21T10:11:37;16.73;;;5.27;;
5355;SDS011;70449;52.486;13.386;2023-11-21T10:14:10;16.43;;;4.80;;
5355;SDS011;70449;52.486;13.386;2023-11-21T10:16:39;8.00;;;4.13;;
5355;SDS011;70449;52.486;13.386;2023-11-21T10:19:12;12.13;;;5.30;;
5355;SDS011;70449;52.486;13.386;2023-11-21T10:21:41;8.20;;;4.50;;
5355;SDS011;70449;52.486;13.386;2023-11-21T10:24:08;6.93;;;3.90;;
5355;SDS011;70449;52.486;13.386;2023-11-21T10:26:37;17.70;;;5.40;;
5355;SDS011;70449;52.486;13.386;2023-11-21T10:29:05;14.67;;;4.97;;
5355;SDS011;70449;52.486;13.386;2023-11-21T10:31:34;9.30;;;4.70;;
5355;SDS011;70449;52.486;13.386;2023-11-21T10:34:14;25.90;;;5.80;;
5355;SDS011;70449;52.486;13.386;2023-11-21T10:36:42;9.20;;;4.90;;
5355;SDS011;70449;52.486;13.386;2023-11-21T10:39:13;22.73;;;5.20;;
5355;SDS011;70449;52.486;13.386;2023-11-21T10:41:44;22.93;;;5.30;;
5355;SDS011;70449;52.486;13.386;2023-11-21T10:44:13;5.57;;;4.47;;
5355;SDS011;70449;52.486;13.386;2023-11-21T10:46:46;8.53;;;4.77;;
5355;SDS011;70449;52.486;13.386;2023-11-21T10:49:16;21.10;;;6.20;;
5355;SDS011;70449;52.486;13.386;2023-11-21T10:51:44;12.40;;;4.30;;
5355;SDS011;70449;52.486;13.386;2023-11-21T10:54:16;7.90;;;4.83;;
5355;SDS011;70449;52.486;13.386;2023-11-21T10:56:45;7.00;;;3.97;;
5355;SDS011;70449;52.486;13.386;2023-11-21T10:59:16;6.40;;;3.87;;
5355;SDS011;70449;52.486;13.386;2023-11-21T11:01:47;19.00;;;4.53;;
5355;SDS011;70449;52.486;13.386;2023-11-21T11:04:16;4.27;;;3.40;;
5355;SDS011;70449;52.486;13.386;2023-11-21T11:06:48;9.30;;;4.20;;
5355;SDS011;70449;52.486;13.386;2023-11-21T11:09:21;6.87;;;4.30;;
5355;SDS011;70449;52.486;13.386;2023-11-21T11:11:48;4.73;;;3.73;;
5355;SDS011;70449;52.486;13.386;2023-11-21T11:14:18;4.27;;;3.87;;
5355;SDS011;70449;52.486;13.386;2023-11-21T11:16:52;8.23;;;4.40;;
5355;SDS011;70449;52.486;13.386;2023-11-21T11:19:21;6.20;;;4.17;;
5355;SDS011;70449;52.486;13.386;2023-11-21T11:21:50;11.90;;;4.67;;
5355;SDS011;70449;52.486;13.386;2023-11-21T11:24:41;4.43;;;3.63;;
5355;SDS011;70449;52.486;13.386;2023-11-21T11:27:26;4.00;;;3.63;;
5355;SDS011;70449;52.486;13.386;2023-11-21T11:30:16;6.63;;;4.27;;
5355;SDS011;70449;52.486;13.386;2023-11-21T11:32:58;9.00;;;4.20;;
5355;SDS011;70449;52.486;13.386;2023-11-21T11:35:41;6.00;;;4.57;;
5355;SDS011;70449;52.486;13.386;2023-11-21T11:38:18;8.13;;;4.60;;
5355;SDS011;70449;52.486;13.386;2023-11-21T11:40:47;5.33;;;3.60;;
5355;SDS011;70449;52.486;13.386;2023-11-21T11:43:24;4.50;;;3.43;;
5355;SDS011;70449;52.486;13.386;2023-11-21T11:45:55;19.53;;;4.50;;
5355;SDS011;70449;52.486;13.386;2023-11-21T11:48:25;7.47;;;3.93;;
5355;SDS011;70449;52.486;13.386;2023-11-21T11:51:02;8.03;;;3.70;;
5355;SDS011;70449;52.486;13.386;2023-11-21T11:53:37;3.67;;;3.37;;
5355;SDS011;70449;52.486;13.386;2023-11-21T11:56:25;4.63;;;3.70;;
5355;SDS011;70449;52.486;13.386;2023-11-21T11:58:55;8.37;;;4.73;;
5355;SDS011;70449;52.486;13.386;2023-11-21T12:01:25;9.13;;;4.57;;
5355;SDS011;70449;52.486;13.386;2023-11-21T12:06:59;4.97;;;3.30;;
5355;SDS011;70449;52.486;13.386;2023-11-21T12:09:29;4.80;;;3.50;;
5355;SDS011;70449;52.486;13.386;2023-11-21T12:11:58;4.77;;;3.33;;
5355;SDS011;70449;52.486;13.386;2023-11-21T12:14:26;4.43;;;3.40;;
5355;SDS011;70449;52.486;13.386;2023-11-21T12:16:54;10.20;;;3.60;;
5355;SDS011;70449;52.486;13.386;2023-11-21T12:19:25;3.23;;;2.93;;
5355;SDS011;70449;52.486;13.386;2023-11-21T12:21:53;5.53;;;3.27;;
5355;SDS011;70449;52.486;13.386;2023-11-21T12:24:21;6.30;;;3.90;;
5355;SDS011;70449;52.486;13.386;2023-11-21T12:26:48;6.20;;;3.40;;
5355;SDS011;70449;52.486;13.386;2023-11-21T12:29:16;5.70;;;4.07;;
5355;SDS011;70449;52.486;13.386;2023-11-21T12:31:43;4.03;;;2.70;;
5355;SDS011;70449;52.486;13.386;2023-11-21T12:34:12;6.73;;;3.13;;
5355;SDS011;70449;52.486;13.386;2023-11-21T12:36:40;3.50;;;3.13;;
5355;SDS011;70449;52.486;13.386;2023-11-21T12:39:09;5.43;;;3.03;;
5355;SDS011;70449;52.486;13.386;2023-11-21T12:41:36;6.50;;;3.70;;
5355;SDS011;70449;52.486;13.386;2023-11-21T12:44:04;6.20;;;3.63;;
5355;SDS011;70449;52.486;13.386;2023-11-21T12:46:41;6.43;;;3.80;;
5355;SDS011;70449;52.486;13.386;2023-11-21T12:49:10;5.67;;;3.60;;
5355;SDS011;70449;52.486;13.386;2023-11-21T12:51:43;9.27;;;3.10;;
5355;SDS011;70449;52.486;13.386;2023-11-21T12:54:12;4.80;;;3.30;;
5355;SDS011;70449;52.486;13.386;2023-11-21T12:56:40;4.03;;;3.03;;
5355;SDS011;70449;52.486;13.386;2023-11-21T12:59:12;4.80;;;3.30;;
5355;SDS011;70449;52.486;13.386;2023-11-21T13:01:41;3.93;;;3.40;;
5355;SDS011;70449;52.486;13.386;2023-11-21T13:04:09;8.60;;;3.33;;
5355;SDS011;70449;52.486;13.386;2023-11-21T13:06:37;5.47;;;3.33;;
5355;SDS011;70449;52.486;13.386;2023-11-21T13:09:07;8.30;;;3.10;;
5355;SDS011;70449;52.486;13.386;2023-11-21T13:11:36;4.07;;;3.33;;
5355;SDS011;70449;52.486;13.386;2023-11-21T13:14:06;6.43;;;3.97;;
5355;SDS011;70449;52.486;13.386;2023-11-21T13:16:36;4.53;;;3.23;;
5355;SDS011;70449;52.486;13.386;2023-11-21T13:19:04;9.67;;;4.17;;
5355;SDS011;70449;52.486;13.386;2023-11-21T13:21:33;7.67;;;4.73;;
5355;SDS011;70449;52.486;13.386;2023-11-21T13:24:01;6.40;;;4.10;;
5355;SDS011;70449;52.486;13.386;2023-11-21T13:26:30;6.57;;;4.30;;
5355;SDS011;70449;52.486;13.386;2023-11-21T13:28:58;5.93;;;4.10;;
5355;SDS011;70449;52.486;13.386;2023-11-21T13:31:25;6.83;;;4.27;;
5355;SDS011;70449;52.486;13.386;2023-11-21T13:33:56;4.80;;;4.00;;
5355;SDS011;70449;52.486;13.386;2023-11-21T13:36:30;10.67;;;5.07;;
5355;SDS011;70449;52.486;13.386;2023-11-21T13:38:58;8.93;;;4.50;;
5355;SDS011;70449;52.486;13.386;2023-11-21T13:41:31;16.53;;;5.43;;
5355;SDS011;70449;52.486;13.386;2023-11-21T13:43:59;5.97;;;4.33;;
5355;SDS011;70449;52.486;13.386;2023-11-21T13:46:39;17.23;;;6.73;;
5355;SDS011;70449;52.486;13.386;2023-11-21T13:49:06;6.63;;;5.00;;
5355;SDS011;70449;52.486;13.386;2023-11-21T13:51:35;12.30;;;5.93;;
5355;SDS011;70449;52.486;13.386;2023-11-21T13:54:06;9.80;;;6.30;;
5355;SDS011;70449;52.486;13.386;2023-11-21T13:56:35;17.90;;;6.47;;
5355;SDS011;70449;52.486;13.386;2023-11-21T13:59:05;6.97;;;5.13;;
5355;SDS011;70449;52.486;13.386;2023-11-21T14:01:43;10.37;;;5.50;;
5355;SDS011;70449;52.486;13.386;2023-11-21T14:04:21;10.40;;;5.27;;
5355;SDS011;70449;52.486;13.386;2023-11-21T14:07:04;9.57;;;5.90;;
5355;SDS011;70449;52.486;13.386;2023-11-21T14:09:47;12.03;;;5.77;;
5355;SDS011;70449;52.486;13.386;2023-11-21T14:12:16;12.03;;;6.57;;
5355;SDS011;70449;52.486;13.386;2023-11-21T14:14:44;8.43;;;5.77;;
5355;SDS011;70449;52.486;13.386;2023-11-21T14:17:12;13.60;;;8.00;;
5355;SDS011;70449;52.486;13.386;2023-11-21T14:19:40;8.70;;;5.57;;
5355;SDS011;70449;52.486;13.386;2023-11-21T14:22:10;14.63;;;6.87;;
5355;SDS011;70449;52.486;13.386;2023-11-21T14:24:38;11.73;;;6.87;;
5355;SDS011;70449;52.486;13.386;2023-11-21T14:27:09;10.37;;;7.10;;
5355;SDS011;70449;52.486;13.386;2023-11-21T14:29:41;13.97;;;7.30;;
5355;SDS011;70449;52.486;13.386;2023-11-21T14:32:09;14.50;;;8.70;;
5355;SDS011;70449;52.486;13.386;2023-11-21T14:34:38;22.10;;;9.27;;
5355;SDS011;70449;52.486;13.386;2023-11-21T14:37:08;19.10;;;9.60;;
5355;SDS011;70449;52.486;13.386;2023-11-21T14:39:39;21.20;;;8.50;;
5355;SDS011;70449;52.486;13.386;2023-11-21T14:42:09;22.40;;;11.40;;
5355;SDS011;70449;52.486;13.386;2023-11-21T14:44:41;18.43;;;10.20;;
5355;SDS011;70449;52.486;13.386;2023-11-21T14:47:09;22.43;;;10.60;;
5355;SDS011;70449;52.486;13.386;2023-11-21T14:49:41;18.63;;;11.93;;
5355;SDS011;70449;52.486;13.386;2023-11-21T14:52:18;22.43;;;12.93;;
5355;SDS011;70449;52.486;13.386;2023-11-21T14:54:58;23.00;;;13.70;;